createdAt,value
2022-11-09T00:00:24.336Z,27.38
2022-11-09T00:02:51.992Z,27.92
2022-11-09T00:05:19.676Z,30.25
2022-11-09T00:07:47.835Z,26.25
2022-11-09T00:10:16.282Z,27.95
2022-11-09T00:12:43.880Z,24.60
2022-11-09T00:15:11.997Z,25.02
2022-11-09T00:17:39.832Z,25.42
2022-11-09T00:20:08.183Z,26.17
2022-11-09T00:22:35.931Z,25.52
2022-11-09T00:25:04.107Z,23.45
2022-11-09T00:27:31.771Z,25.83
2022-11-09T00:29:59.399Z,28.40
2022-11-09T00:32:28.054Z,21.67
2022-11-09T00:34:55.681Z,25.48
2022-11-09T00:37:23.271Z,26.23
2022-11-09T00:39:51.244Z,25.65
2022-11-09T00:42:18.952Z,29.02
2022-11-09T00:44:46.777Z,25.40
2022-11-09T00:47:14.422Z,29.85
2022-11-09T00:49:42.083Z,24.35
2022-11-09T00:52:09.516Z,26.30
2022-11-09T00:54:37.870Z,28.27
2022-11-09T00:57:05.524Z,25.65
2022-11-09T00:59:33.327Z,26.15
2022-11-09T01:02:00.941Z,29.65
2022-11-09T01:04:28.744Z,27.73
2022-11-09T01:06:56.114Z,27.30
2022-11-09T01:09:23.636Z,28.38
2022-11-09T01:11:51.424Z,30.10
2022-11-09T01:14:19.073Z,28.15
2022-11-09T01:16:46.689Z,27.48
2022-11-09T01:19:14.695Z,31.33
2022-11-09T01:21:42.473Z,31.17
2022-11-09T01:24:10.238Z,27.35
2022-11-09T01:26:38.068Z,29.08
2022-11-09T01:29:05.752Z,32.47
2022-11-09T01:31:33.439Z,29.25
2022-11-09T01:34:00.788Z,29.15
2022-11-09T01:36:28.192Z,29.85
2022-11-09T01:38:55.961Z,32.13
2022-11-09T01:41:27.456Z,27.75
2022-11-09T01:44:18.742Z,31.17
2022-11-09T01:46:53.935Z,33.00
2022-11-09T01:49:33.112Z,34.05
2022-11-09T01:52:06.405Z,27.38
2022-11-09T01:54:40.688Z,29.40
2022-11-09T01:57:20.564Z,32.33
2022-11-09T01:59:58.909Z,31.85
2022-11-09T02:02:26.638Z,36.85
2022-11-09T02:05:07.362Z,39.00
2022-11-09T02:07:35.520Z,32.58
2022-11-09T02:10:10.724Z,30.20
2022-11-09T02:12:38.505Z,34.35
2022-11-09T02:15:09.168Z,34.33
2022-11-09T02:17:37.193Z,29.40
2022-11-09T02:20:11.381Z,35.50
2022-11-09T02:22:39.213Z,34.13
2022-11-09T02:25:07.221Z,33.13
2022-11-09T02:27:35.608Z,31.45
2022-11-09T02:30:04.917Z,35.05
2022-11-09T02:32:36.825Z,32.42
2022-11-09T02:35:07.056Z,31.98
2022-11-09T02:37:40.289Z,29.67
2022-11-09T02:40:16.521Z,33.15
2022-11-09T02:42:45.270Z,28.02
2022-11-09T02:45:15.623Z,26.25
2022-11-09T02:47:43.724Z,29.17
2022-11-09T02:50:14.338Z,22.63
2022-11-09T02:52:43.061Z,23.45
2022-11-09T02:55:11.847Z,25.55
2022-11-09T02:57:42.747Z,26.50
2022-11-09T03:00:13.936Z,25.05
2022-11-09T03:02:43.250Z,30.58
2022-11-09T03:05:13.725Z,27.33
2022-11-09T03:07:43.585Z,25.75
2022-11-09T03:10:13.324Z,27.38
2022-11-09T03:12:43.112Z,27.90
2022-11-09T03:15:11.948Z,24.10
2022-11-09T03:17:40.902Z,26.38
2022-11-09T03:20:09.927Z,26.85
2022-11-09T03:22:38.491Z,23.27
2022-11-09T03:25:09.479Z,24.52
2022-11-09T03:27:40.045Z,21.77
2022-11-09T03:30:10.708Z,24.42
2022-11-09T03:32:44.698Z,24.13
2022-11-09T03:35:16.335Z,21.52
2022-11-09T03:37:44.975Z,23.38
2022-11-09T03:40:14.948Z,24.92
2022-11-09T03:42:47.203Z,24.10
2022-11-09T03:45:18.612Z,22.00
2022-11-09T03:47:48.529Z,25.42
2022-11-09T03:50:20.000Z,27.58
2022-11-09T03:52:51.312Z,26.15
2022-11-09T03:55:22.177Z,26.67
2022-11-09T03:57:51.354Z,27.45
2022-11-09T04:00:23.294Z,25.25
2022-11-09T04:02:52.529Z,24.95
2022-11-09T04:05:24.356Z,28.92
2022-11-09T04:07:57.587Z,29.83
2022-11-09T04:13:00.261Z,22.60
2022-11-09T04:15:29.114Z,21.42
2022-11-09T04:18:01.494Z,20.48
2022-11-09T04:20:34.436Z,20.77
2022-11-09T04:23:08.370Z,25.85
2022-11-09T04:25:40.752Z,23.10
2022-11-09T04:28:12.740Z,26.63
2022-11-09T04:30:42.274Z,25.88
2022-11-09T04:33:13.752Z,23.17
2022-11-09T04:35:44.146Z,25.83
2022-11-09T04:38:15.876Z,21.42
2022-11-09T04:40:47.106Z,23.63
2022-11-09T04:43:17.305Z,24.63
2022-11-09T04:45:48.848Z,23.52
2022-11-09T04:48:19.464Z,24.98
2022-11-09T04:50:53.138Z,23.70
2022-11-09T04:53:22.789Z,22.65
2022-11-09T04:55:51.800Z,22.02
2022-11-09T04:58:24.809Z,20.95
2022-11-09T05:00:54.689Z,20.75
2022-11-09T05:03:24.302Z,21.27
2022-11-09T05:05:52.742Z,24.17
2022-11-09T05:08:22.639Z,20.90
2022-11-09T05:10:51.433Z,22.17
2022-11-09T05:13:20.774Z,20.67
2022-11-09T05:15:49.734Z,24.63
2022-11-09T05:18:19.055Z,22.00
2022-11-09T05:20:51.257Z,23.77
2022-11-09T05:23:35.468Z,21.58
2022-11-09T05:26:04.810Z,19.48
2022-11-09T05:28:34.632Z,20.40
2022-11-09T05:31:02.610Z,19.05
2022-11-09T05:33:32.707Z,18.45
2022-11-09T05:36:01.636Z,20.80
2022-11-09T05:38:32.216Z,19.13
2022-11-09T05:41:00.520Z,18.60
2022-11-09T05:43:29.425Z,20.45
2022-11-09T05:46:02.482Z,16.75
2022-11-09T05:48:34.594Z,21.80
2022-11-09T05:51:06.096Z,18.75
2022-11-09T05:53:35.593Z,17.92
2022-11-09T05:56:08.684Z,16.42
2022-11-09T05:58:40.232Z,17.23
2022-11-09T06:01:12.486Z,17.08
2022-11-09T06:03:45.586Z,15.57
2022-11-09T06:06:17.935Z,16.55
2022-11-09T06:08:47.763Z,16.47
2022-11-09T06:11:23.151Z,14.98
2022-11-09T06:13:53.827Z,21.20
2022-11-09T06:16:24.054Z,16.60
2022-11-09T06:18:54.891Z,17.02
2022-11-09T06:21:25.091Z,18.63
2022-11-09T06:23:55.036Z,17.60
2022-11-09T06:26:25.033Z,16.67
2022-11-09T06:28:55.768Z,16.52
2022-11-09T06:31:24.634Z,18.50
2022-11-09T06:33:55.074Z,16.15
2022-11-09T06:36:24.880Z,16.40
2022-11-09T06:38:54.621Z,16.13
2022-11-09T06:41:25.381Z,16.77
2022-11-09T06:43:54.570Z,18.10
2022-11-09T06:46:28.126Z,17.65
2022-11-09T06:49:00.870Z,18.58
2022-11-09T06:51:31.649Z,16.75
2022-11-09T06:54:01.081Z,16.27
2022-11-09T06:56:31.848Z,17.42
2022-11-09T06:59:02.283Z,18.63
2022-11-09T07:01:32.566Z,17.20
2022-11-09T07:04:03.426Z,16.40
2022-11-09T07:06:32.252Z,18.73
2022-11-09T07:09:02.522Z,15.95
2022-11-09T07:11:32.435Z,17.25
2022-11-09T07:14:04.638Z,15.63
2022-11-09T07:16:34.767Z,17.13
2022-11-09T07:19:05.512Z,16.77
2022-11-09T07:21:36.522Z,17.95
2022-11-09T07:24:06.234Z,15.98
2022-11-09T07:26:36.908Z,16.67
2022-11-09T07:29:05.732Z,18.95
2022-11-09T07:31:35.402Z,17.50
2022-11-09T07:34:06.252Z,18.75
2022-11-09T07:36:38.855Z,19.10
2022-11-09T07:39:09.619Z,17.15
2022-11-09T07:41:39.410Z,17.40
2022-11-09T07:44:10.709Z,16.20
2022-11-09T07:46:41.497Z,14.60
2022-11-09T07:49:11.316Z,16.25
2022-11-09T07:51:41.806Z,17.63
2022-11-09T07:54:13.129Z,20.23
2022-11-09T07:56:44.328Z,19.08
2022-11-09T07:59:18.909Z,19.65
2022-11-09T08:01:48.576Z,19.35
2022-11-09T08:04:18.546Z,19.95
2022-11-09T08:06:46.785Z,19.60
2022-11-09T08:09:15.906Z,18.83
2022-11-09T08:11:43.332Z,18.42
2022-11-09T08:14:11.163Z,18.55
2022-11-09T08:16:38.976Z,18.83
2022-11-09T08:19:09.115Z,20.90
2022-11-09T08:21:38.376Z,23.38
2022-11-09T08:24:06.733Z,22.90
2022-11-09T08:26:34.505Z,19.35
2022-11-09T08:29:02.198Z,20.70
2022-11-09T08:31:30.091Z,20.05
2022-11-09T08:33:57.796Z,20.70
2022-11-09T08:36:27.967Z,21.02
2022-11-09T08:38:55.831Z,15.20
2022-11-09T08:41:23.681Z,18.15
2022-11-09T08:43:51.330Z,17.02
2022-11-09T08:46:20.677Z,16.95
2022-11-09T08:48:48.419Z,16.98
2022-11-09T08:51:15.795Z,16.02
2022-11-09T08:53:43.231Z,16.50
2022-11-09T08:56:13.123Z,16.75
2022-11-09T08:58:41.017Z,18.13
2022-11-09T09:01:13.888Z,18.23
2022-11-09T09:03:44.721Z,16.38
2022-11-09T09:06:12.581Z,13.23
2022-11-09T09:08:40.178Z,11.98
2022-11-09T09:11:08.223Z,14.73
2022-11-09T09:13:40.530Z,14.70
2022-11-09T09:16:14.289Z,14.05
2022-11-09T09:18:42.043Z,16.02
2022-11-09T09:21:10.975Z,14.35
2022-11-09T09:23:38.745Z,14.15
2022-11-09T09:26:06.723Z,16.60
2022-11-09T09:28:34.975Z,17.65
2022-11-09T09:31:05.716Z,17.45
2022-11-09T09:33:33.809Z,18.25
2022-11-09T09:36:01.623Z,17.17
2022-11-09T09:38:29.983Z,18.33
2022-11-09T09:41:01.073Z,21.98
2022-11-09T09:43:42.723Z,17.65
2022-11-09T09:46:32.565Z,18.70
2022-11-09T09:49:08.074Z,20.10
2022-11-09T09:51:41.197Z,18.48
2022-11-09T09:54:22.845Z,20.27
2022-11-09T09:56:53.221Z,20.85
2022-11-09T09:59:48.473Z,19.75
2022-11-09T10:02:32.314Z,20.85
2022-11-09T10:05:07.069Z,19.70
2022-11-09T10:07:47.217Z,20.60
2022-11-09T10:10:37.614Z,18.70
2022-11-09T10:13:35.886Z,20.15
2022-11-09T10:16:27.968Z,23.40
2022-11-09T10:19:22.628Z,21.35
2022-11-09T10:22:00.911Z,20.85
2022-11-09T10:27:52.141Z,17.95
2022-11-09T10:30:21.561Z,21.65
2022-11-09T10:32:52.800Z,20.45
2022-11-09T10:35:30.786Z,19.38
2022-11-09T10:37:58.760Z,20.85
2022-11-09T10:40:39.138Z,19.88
2022-11-09T10:43:11.540Z,20.35
2022-11-09T10:45:41.995Z,24.27
2022-11-09T10:48:11.729Z,18.45
2022-11-09T10:50:55.973Z,19.15
2022-11-09T10:53:25.703Z,21.15
2022-11-09T10:55:56.956Z,19.45
2022-11-09T10:58:33.278Z,20.42
2022-11-09T11:01:14.260Z,19.75
2022-11-09T11:03:43.492Z,23.10
2022-11-09T11:06:27.283Z,20.35
2022-11-09T11:09:16.557Z,21.48
2022-11-09T11:11:44.621Z,19.77
2022-11-09T11:14:28.186Z,20.52
2022-11-09T11:16:56.369Z,19.92
2022-11-09T11:19:32.147Z,21.92
2022-11-09T11:22:19.940Z,20.02
2022-11-09T11:24:57.438Z,17.67
2022-11-09T11:27:45.804Z,20.00
2022-11-09T11:30:23.133Z,19.05
2022-11-09T11:32:54.310Z,23.73
2022-11-09T11:35:38.974Z,21.70
2022-11-09T11:38:23.681Z,16.98
2022-11-09T11:41:11.267Z,18.85
2022-11-09T11:43:57.101Z,17.50
2022-11-09T11:46:48.594Z,16.02
2022-11-09T11:49:42.384Z,19.13
2022-11-09T11:57:52.513Z,11.93
2022-11-09T12:00:21.294Z,16.27
2022-11-09T12:03:08.603Z,14.52
2022-11-09T12:06:09.450Z,15.80
2022-11-09T12:09:00.571Z,18.08
2022-11-09T12:11:43.309Z,15.57
2022-11-09T12:14:33.090Z,15.48
2022-11-09T12:17:20.338Z,14.18
2022-11-09T12:20:18.993Z,17.38
2022-11-09T12:23:17.702Z,16.15
2022-11-09T12:26:04.450Z,12.73
2022-11-09T12:29:01.069Z,15.45
2022-11-09T12:31:50.740Z,14.52
2022-11-09T12:34:27.917Z,14.38
2022-11-09T12:37:08.055Z,13.85
2022-11-09T12:39:42.203Z,12.15
2022-11-09T12:42:30.164Z,11.10
2022-11-09T12:45:08.039Z,11.48
2022-11-09T12:47:41.668Z,11.38
2022-11-09T12:50:25.827Z,12.38
2022-11-09T12:52:53.808Z,12.18
2022-11-09T12:55:30.178Z,11.55
2022-11-09T12:58:00.969Z,12.98
2022-11-09T13:00:49.703Z,13.10
2022-11-09T13:03:24.526Z,12.05
2022-11-09T13:06:20.203Z,13.27
2022-11-09T13:09:07.879Z,12.45
2022-11-09T13:11:47.042Z,11.82
2022-11-09T13:14:36.901Z,10.38
2022-11-09T13:17:40.668Z,13.93
2022-11-09T13:20:56.594Z,15.27
2022-11-09T13:26:56.300Z,15.35
2022-11-09T13:29:52.300Z,15.32
2022-11-09T13:32:28.486Z,13.77
2022-11-09T13:34:57.789Z,16.17
2022-11-09T13:37:48.361Z,13.95
2022-11-09T13:40:41.098Z,14.27
2022-11-09T13:43:32.325Z,15.27
2022-11-09T13:46:03.288Z,16.67
2022-11-09T13:48:47.079Z,19.15
2022-11-09T13:51:18.649Z,12.93
2022-11-09T13:54:03.248Z,16.77
2022-11-09T13:56:40.211Z,14.00
2022-11-09T13:59:25.692Z,16.75
2022-11-09T14:01:56.640Z,15.90
2022-11-09T14:04:30.871Z,15.43
2022-11-09T14:07:23.929Z,15.70
2022-11-09T14:10:16.642Z,16.92
2022-11-09T14:13:00.266Z,14.23
2022-11-09T14:15:55.932Z,16.65
2022-11-09T14:18:52.304Z,16.25
2022-11-09T14:21:47.609Z,17.02
2022-11-09T14:24:19.928Z,14.98
2022-11-09T14:27:12.721Z,17.90
2022-11-09T14:29:56.996Z,15.15
2022-11-09T14:32:33.127Z,18.08
2022-11-09T14:35:31.238Z,14.88
2022-11-09T14:38:01.919Z,15.23
2022-11-09T14:40:32.160Z,17.60
2022-11-09T14:43:17.662Z,19.35
2022-11-09T14:45:55.119Z,22.05
2022-11-09T14:48:24.764Z,21.27
2022-11-09T14:50:55.468Z,21.08
2022-11-09T14:53:28.684Z,18.20
2022-11-09T14:55:59.938Z,18.27
2022-11-09T14:58:30.655Z,19.20
2022-11-09T15:01:21.938Z,21.67
2022-11-09T15:04:08.174Z,17.55
2022-11-09T15:06:36.489Z,19.45
2022-11-09T15:09:08.850Z,21.67
2022-11-09T15:11:40.170Z,17.02
2022-11-09T15:14:25.710Z,19.98
2022-11-09T15:17:07.179Z,23.80
2022-11-09T15:19:47.731Z,23.70
2022-11-09T15:22:44.433Z,24.17
2022-11-09T15:25:41.658Z,21.48
2022-11-09T15:28:26.925Z,19.92
2022-11-09T15:31:13.668Z,22.27
2022-11-09T15:33:52.404Z,20.23
2022-11-09T15:36:28.798Z,19.63
2022-11-09T15:39:04.715Z,20.73
2022-11-09T15:41:32.924Z,20.85
2022-11-09T15:44:00.590Z,22.02
2022-11-09T15:46:34.827Z,21.95
2022-11-09T15:49:15.741Z,22.75
2022-11-09T15:51:44.808Z,24.17
2022-11-09T15:54:13.003Z,23.73
2022-11-09T15:56:40.573Z,22.23
2022-11-09T15:59:15.509Z,24.17
2022-11-09T16:01:43.465Z,24.73
2022-11-09T16:04:11.160Z,19.23
2022-11-09T16:06:42.468Z,26.67
2022-11-09T16:09:13.009Z,23.38
2022-11-09T16:11:40.943Z,25.50
2022-11-09T16:14:08.776Z,29.58
2022-11-09T16:16:36.569Z,22.38
2022-11-09T16:19:04.414Z,23.38
2022-11-09T16:21:34.948Z,23.05
2022-11-09T16:24:02.685Z,25.42
2022-11-09T16:26:30.631Z,28.25
2022-11-09T16:29:01.336Z,23.60
2022-11-09T16:31:50.445Z,21.77
2022-11-09T16:34:17.906Z,19.58
2022-11-09T16:36:50.819Z,21.63
2022-11-09T16:39:20.349Z,26.75
2022-11-09T16:41:50.347Z,19.83
2022-11-09T16:44:21.665Z,22.05
2022-11-09T16:46:49.186Z,22.73
2022-11-09T16:49:16.837Z,21.23
2022-11-09T16:51:44.579Z,21.35
2022-11-09T16:54:12.290Z,19.92
2022-11-09T16:56:39.968Z,18.00
2022-11-09T16:59:07.874Z,25.33
2022-11-09T17:01:35.815Z,21.83
2022-11-09T17:04:03.856Z,20.85
2022-11-09T17:06:34.251Z,19.70
2022-11-09T17:09:03.531Z,19.63
2022-11-09T17:11:31.614Z,22.02
2022-11-09T17:14:00.453Z,19.60
2022-11-09T17:16:31.038Z,20.50
2022-11-09T17:19:00.679Z,20.55
2022-11-09T17:21:31.721Z,17.05
2022-11-09T17:24:02.336Z,15.23
2022-11-09T17:26:33.615Z,17.70
2022-11-09T17:29:05.034Z,17.40
2022-11-09T17:31:36.345Z,21.08
2022-11-09T17:34:05.626Z,13.27
2022-11-09T17:37:02.492Z,15.07
2022-11-09T17:39:23.399Z,17.20
2022-11-09T17:41:51.863Z,15.05
2022-11-09T17:44:19.876Z,16.98
2022-11-09T17:46:47.997Z,18.23
2022-11-09T17:49:16.011Z,18.35
2022-11-09T17:51:44.173Z,14.48
2022-11-09T17:54:12.465Z,14.35
2022-11-09T17:56:40.660Z,17.60
2022-11-09T17:59:08.565Z,16.17
2022-11-09T18:01:41.118Z,14.52
2022-11-09T18:04:11.388Z,15.23
2022-11-09T18:06:39.347Z,15.23
2022-11-09T18:11:55.304Z,13.38
2022-11-09T18:14:25.592Z,14.48
2022-11-09T18:16:54.210Z,16.35
2022-11-09T18:19:22.463Z,14.30
2022-11-09T18:21:50.552Z,14.32
2022-11-09T18:24:18.152Z,15.68
2022-11-09T18:26:46.291Z,15.65
2022-11-09T18:29:14.674Z,13.77
2022-11-09T18:31:43.207Z,15.02
2022-11-09T18:34:11.898Z,12.27
2022-11-09T18:36:40.390Z,13.00
2022-11-09T18:39:09.146Z,14.77
2022-11-09T18:41:37.376Z,11.98
2022-11-09T18:44:06.705Z,11.02
2022-11-09T18:46:36.362Z,13.35
2022-11-09T18:49:11.522Z,16.45
2022-11-09T18:51:43.480Z,14.10
2022-11-09T18:54:16.195Z,12.68
2022-11-09T18:56:46.554Z,12.60
2022-11-09T18:59:15.292Z,15.50
2022-11-09T19:01:44.211Z,14.95
2022-11-09T19:04:17.124Z,12.52
2022-11-09T19:06:49.059Z,13.63
2022-11-09T19:09:32.920Z,15.20
2022-11-09T19:12:09.858Z,15.05
2022-11-09T19:14:41.776Z,14.00
2022-11-09T19:17:16.003Z,16.45
2022-11-09T19:19:44.185Z,13.32
2022-11-09T19:22:17.622Z,15.07
2022-11-09T19:24:48.069Z,19.08
2022-11-09T19:27:16.520Z,20.23
2022-11-09T19:29:45.351Z,15.20
2022-11-09T19:32:15.449Z,14.10
2022-11-09T19:34:46.972Z,13.82
2022-11-09T19:37:15.981Z,18.27
2022-11-09T19:39:47.878Z,15.63
2022-11-09T19:42:16.977Z,16.15
2022-11-09T19:44:46.080Z,16.27
2022-11-09T19:47:16.370Z,15.30
2022-11-09T19:49:47.646Z,12.77
2022-11-09T19:52:17.709Z,14.65
2022-11-09T19:54:47.457Z,13.63
2022-11-09T19:57:16.965Z,14.48
2022-11-09T19:59:46.176Z,12.40
2022-11-09T20:02:15.830Z,13.45
2022-11-09T20:04:45.301Z,13.18
2022-11-09T20:07:14.979Z,15.20
2022-11-09T20:09:44.283Z,12.70
2022-11-09T20:12:29.308Z,12.25
2022-11-09T20:14:59.193Z,11.85
2022-11-09T20:17:28.154Z,11.80
2022-11-09T20:19:57.846Z,12.75
2022-11-09T20:22:29.956Z,13.35
2022-11-09T20:24:58.348Z,13.43
2022-11-09T20:27:29.586Z,14.43
2022-11-09T20:30:01.811Z,14.85
2022-11-09T20:32:33.205Z,12.70
2022-11-09T20:35:01.936Z,14.13
2022-11-09T20:37:31.213Z,12.88
2022-11-09T20:39:59.102Z,13.52
2022-11-09T20:42:29.834Z,12.20
2022-11-09T20:44:59.038Z,13.02
2022-11-09T20:47:57.141Z,12.75
2022-11-09T20:50:15.823Z,11.10
2022-11-09T20:52:48.156Z,12.75
2022-11-09T20:55:17.311Z,12.85
2022-11-09T20:57:45.889Z,10.32
2022-11-09T21:00:14.421Z,10.60
2022-11-09T21:02:43.554Z,10.10
2022-11-09T21:05:13.259Z,11.63
2022-11-09T21:07:44.214Z,11.50
2022-11-09T21:10:12.585Z,9.50
2022-11-09T21:12:40.426Z,12.63
2022-11-09T21:15:11.290Z,13.52
2022-11-09T21:17:39.223Z,12.45
2022-11-09T21:20:10.197Z,12.20
2022-11-09T21:22:54.616Z,13.55
2022-11-09T21:25:38.749Z,11.27
2022-11-09T21:28:22.468Z,13.60
2022-11-09T21:30:50.917Z,14.00
2022-11-09T21:33:19.795Z,13.85
2022-11-09T21:35:48.619Z,15.95
2022-11-09T21:38:16.876Z,13.60
2022-11-09T21:40:46.426Z,12.00
2022-11-09T21:43:15.416Z,13.50
2022-11-09T21:45:44.100Z,11.30
2022-11-09T21:48:12.663Z,10.85
2022-11-09T21:50:40.759Z,12.73
2022-11-09T21:53:08.274Z,12.07
2022-11-09T21:55:36.056Z,13.68
2022-11-09T21:58:03.525Z,11.25
2022-11-09T22:00:31.253Z,11.93
2022-11-09T22:02:59.558Z,13.98
2022-11-09T22:05:27.513Z,11.07
2022-11-09T22:07:55.305Z,15.65
2022-11-09T22:10:24.972Z,13.48
2022-11-09T22:13:08.059Z,11.93
2022-11-09T22:15:51.407Z,13.50
2022-11-09T22:21:01.984Z,14.32
2022-11-09T22:23:29.839Z,10.43
2022-11-09T22:26:02.266Z,12.25
2022-11-09T22:28:30.153Z,13.32
2022-11-09T22:31:01.172Z,12.32
2022-11-09T22:33:31.760Z,13.57
2022-11-09T22:36:03.160Z,11.85
2022-11-09T22:38:33.575Z,14.23
2022-11-09T22:41:03.113Z,14.15
2022-11-09T22:43:35.032Z,10.95
2022-11-09T22:46:04.383Z,15.00
2022-11-09T22:48:33.842Z,12.95
2022-11-09T22:51:01.807Z,14.90
2022-11-09T22:53:29.896Z,11.50
2022-11-09T22:55:59.650Z,13.98
2022-11-09T22:58:27.636Z,14.90
2022-11-09T23:00:55.465Z,13.77
2022-11-09T23:03:23.567Z,12.23
2022-11-09T23:05:51.857Z,11.90
2022-11-09T23:08:19.305Z,15.32
2022-11-09T23:10:55.340Z,12.55
2022-11-09T23:13:23.422Z,14.55
2022-11-09T23:15:56.200Z,11.27
2022-11-09T23:18:39.165Z,13.15
2022-11-09T23:21:07.319Z,13.32
2022-11-09T23:23:35.136Z,13.85
2022-11-09T23:26:03.441Z,14.10
2022-11-09T23:28:31.985Z,14.45
2022-11-09T23:31:01.374Z,13.63
2022-11-09T23:33:29.422Z,14.73
2022-11-09T23:35:57.826Z,13.43
2022-11-09T23:38:25.652Z,12.82
2022-11-09T23:40:53.203Z,13.13
2022-11-09T23:43:21.477Z,14.60
2022-11-09T23:45:49.283Z,15.73
2022-11-09T23:48:18.954Z,15.63
2022-11-09T23:50:48.251Z,13.45
2022-11-09T23:53:15.980Z,15.55
2022-11-09T23:55:43.360Z,16.10
2022-11-09T23:58:11.078Z,12.52
